Time;durP1;ratioP1;P1;durP2;ratioP2;P2;SDS_P1;SDS_P2;PMS_P1;PMS_P2;Temp;Humidity;BMP_temperature;BMP_pressure;BME280_temperature;BME280_humidity;BME280_pressure;Samples;Min_cycle;Max_cycle;Signal;HPM_P1;HPM_P2
2023/08/03 00:00:49;;;;;;;3.75;1.10;;;;;;;;;;4989901;28;91790;-70
2023/08/03 00:03:16;;;;;;;7.03;1.58;;;;;;;;;;4995682;28;93470;-70
2023/08/03 00:05:42;;;;;;;4.00;1.90;;;;;;;;;;4992672;28;93403;-69
2023/08/03 00:08:09;;;;;;;4.88;1.60;;;;;;;;;;4993712;28;95330;-70
2023/08/03 00:10:35;;;;;;;5.97;1.83;;;;;;;;;;4992397;28;93401;-72
2023/08/03 00:13:02;;;;;;;4.70;2.20;;;;;;;;;;4991878;28;94513;-70
2023/08/03 00:15:29;;;;;;;6.47;2.03;;;;;;;;;;4990419;28;93095;-69
2023/08/03 00:17:55;;;;;;;11.23;2.50;;;;;;;;;;4991817;28;93494;-71
2023/08/03 00:20:21;;;;;;;8.23;2.30;;;;;;;;;;4992329;28;92877;-71
2023/08/03 00:22:48;;;;;;;13.05;3.00;;;;;;;;;;4992354;28;93017;-71
2023/08/03 00:25:14;;;;;;;14.48;3.35;;;;;;;;;;4985974;28;93784;-71
2023/08/03 00:27:41;;;;;;;10.02;2.67;;;;;;;;;;4990734;28;92728;-71
2023/08/03 00:30:07;;;;;;;10.52;3.53;;;;;;;;;;4989211;28;93463;-70
2023/08/03 00:32:34;;;;;;;7.38;3.05;;;;;;;;;;4989632;28;94914;-70
2023/08/03 00:35:00;;;;;;;9.85;3.20;;;;;;;;;;4991276;28;95720;-70
2023/08/03 00:37:26;;;;;;;8.82;3.10;;;;;;;;;;4987827;28;94442;-71
2023/08/03 00:39:53;;;;;;;9.88;3.03;;;;;;;;;;4988695;28;92614;-71
2023/08/03 00:42:19;;;;;;;12.75;3.78;;;;;;;;;;4991144;28;94127;-70
2023/08/03 00:44:45;;;;;;;13.30;3.10;;;;;;;;;;4992210;28;94435;-70
2023/08/03 00:47:12;;;;;;;12.80;3.85;;;;;;;;;;4991753;28;93133;-70
2023/08/03 00:49:38;;;;;;;13.65;3.78;;;;;;;;;;4998853;28;93796;-70
2023/08/03 00:52:05;;;;;;;10.90;2.95;;;;;;;;;;4991508;28;92580;-71
2023/08/03 00:54:31;;;;;;;15.15;3.92;;;;;;;;;;4992146;28;93132;-71
2023/08/03 00:56:57;;;;;;;11.52;3.67;;;;;;;;;;4990130;28;96454;-71
2023/08/03 00:59:24;;;;;;;9.40;3.13;;;;;;;;;;4992229;28;93357;-71
2023/08/03 01:01:50;;;;;;;15.25;3.55;;;;;;;;;;4998302;28;93105;-71
2023/08/03 01:04:17;;;;;;;11.68;4.10;;;;;;;;;;4988552;28;92345;-70
2023/08/03 01:06:44;;;;;;;15.07;4.32;;;;;;;;;;4992679;28;92312;-70
2023/08/03 01:09:10;;;;;;;10.95;2.45;;;;;;;;;;4991555;28;93146;-70
2023/08/03 01:11:37;;;;;;;15.55;3.03;;;;;;;;;;4998767;28;93615;-70
2023/08/03 01:14:03;;;;;;;14.55;2.80;;;;;;;;;;4991518;28;93500;-72
2023/08/03 01:16:30;;;;;;;8.05;2.65;;;;;;;;;;4991078;28;93336;-74
2023/08/03 01:18:57;;;;;;;13.40;2.40;;;;;;;;;;4988831;28;92569;-71
2023/08/03 01:21:28;;;;;;;10.13;2.15;;;;;;;;;;4984791;28;94951;-70
2023/08/03 01:23:55;;;;;;;8.38;1.90;;;;;;;;;;4991822;28;93689;-69
2023/08/03 01:26:21;;;;;;;11.38;2.10;;;;;;;;;;4994029;28;92614;-71
2023/08/03 01:28:48;;;;;;;7.53;1.58;;;;;;;;;;4992826;28;93119;-71
2023/08/03 01:31:15;;;;;;;7.72;1.88;;;;;;;;;;4993678;28;94555;-71
2023/08/03 01:33:41;;;;;;;10.88;2.47;;;;;;;;;;4996993;28;92807;-71
2023/08/03 01:36:07;;;;;;;6.20;1.80;;;;;;;;;;4993326;28;94475;-70
2023/08/03 01:38:34;;;;;;;7.57;2.22;;;;;;;;;;4990899;28;91854;-69
2023/08/03 01:41:00;;;;;;;15.00;3.13;;;;;;;;;;4994308;28;93273;-71
2023/08/03 01:43:27;;;;;;;10.90;3.22;;;;;;;;;;4988838;28;93165;-70
2023/08/03 01:45:53;;;;;;;13.98;3.25;;;;;;;;;;4996661;28;94971;-71
2023/08/03 01:48:20;;;;;;;8.93;2.88;;;;;;;;;;4991657;28;96195;-71
2023/08/03 01:50:49;;;;;;;14.27;2.78;;;;;;;;;;4998793;28;92652;-71
2023/08/03 01:53:17;;;;;;;8.93;2.58;;;;;;;;;;4994362;28;92433;-71
2023/08/03 01:55:47;;;;;;;15.52;2.97;;;;;;;;;;4993131;28;92778;-71
2023/08/03 01:58:13;;;;;;;20.73;3.43;;;;;;;;;;4994136;28;92604;-70
2023/08/03 02:00:40;;;;;;;13.30;3.00;;;;;;;;;;4993958;28;93142;-70
2023/08/03 02:03:06;;;;;;;10.95;2.72;;;;;;;;;;5009234;28;93948;-71
2023/08/03 02:05:33;;;;;;;14.27;2.83;;;;;;;;;;4995064;28;92443;-71
2023/08/03 02:07:59;;;;;;;13.65;2.80;;;;;;;;;;4994829;28;92953;-71
2023/08/03 02:10:25;;;;;;;14.52;2.65;;;;;;;;;;4992955;28;95737;-71
2023/08/03 02:12:52;;;;;;;19.70;4.28;;;;;;;;;;4990494;28;92452;-71
2023/08/03 02:15:18;;;;;;;10.75;2.95;;;;;;;;;;4994649;28;93380;-71
2023/08/03 02:17:45;;;;;;;15.55;3.47;;;;;;;;;;4994844;28;93604;-70
2023/08/03 02:20:11;;;;;;;17.33;3.50;;;;;;;;;;4993953;28;93355;-72
2023/08/03 02:22:38;;;;;;;12.27;3.38;;;;;;;;;;4993538;28;96390;-72
2023/08/03 02:25:05;;;;;;;20.83;3.97;;;;;;;;;;4998038;28;92426;-72
2023/08/03 02:27:31;;;;;;;18.65;3.67;;;;;;;;;;4994131;28;94205;-71
2023/08/03 02:29:57;;;;;;;16.25;3.30;;;;;;;;;;4990545;28;93349;-70
2023/08/03 02:32:25;;;;;;;17.48;3.10;;;;;;;;;;4990377;28;92951;-70
2023/08/03 02:34:51;;;;;;;18.58;3.03;;;;;;;;;;4990681;28;96551;-71
2023/08/03 02:37:18;;;;;;;17.83;3.28;;;;;;;;;;4995637;28;93541;-71
2023/08/03 02:39:44;;;;;;;10.27;3.20;;;;;;;;;;4993761;28;93099;-71
2023/08/03 02:42:10;;;;;;;12.18;2.63;;;;;;;;;;4989606;28;94081;-72
2023/08/03 02:44:37;;;;;;;21.33;3.72;;;;;;;;;;4990853;28;94089;-71
2023/08/03 02:47:03;;;;;;;13.95;3.15;;;;;;;;;;4992863;28;94248;-71
2023/08/03 02:49:30;;;;;;;19.73;3.17;;;;;;;;;;4989592;28;94592;-71
2023/08/03 02:51:56;;;;;;;13.00;3.15;;;;;;;;;;4997879;28;91808;-71
2023/08/03 02:54:22;;;;;;;12.18;2.88;;;;;;;;;;4992903;28;92560;-72
2023/08/03 02:56:48;;;;;;;11.95;2.50;;;;;;;;;;4993907;28;95847;-71
2023/08/03 02:59:18;;;;;;;8.85;3.08;;;;;;;;;;4991387;28;96044;-69
2023/08/03 03:01:45;;;;;;;12.07;3.10;;;;;;;;;;4992475;28;93469;-72
2023/08/03 03:04:12;;;;;;;9.48;2.35;;;;;;;;;;4991700;28;93134;-73
2023/08/03 03:06:38;;;;;;;11.85;2.40;;;;;;;;;;4991099;28;93479;-73
2023/08/03 03:09:05;;;;;;;15.35;3.05;;;;;;;;;;4990589;28;93611;-72
2023/08/03 03:11:31;;;;;;;10.15;2.90;;;;;;;;;;4991548;28;92567;-72
2023/08/03 03:13:58;;;;;;;13.70;3.17;;;;;;;;;;4990992;28;93480;-70
2023/08/03 03:16:25;;;;;;;7.82;2.17;;;;;;;;;;4992454;28;92619;-70
2023/08/03 03:18:52;;;;;;;7.15;2.17;;;;;;;;;;4989844;28;92611;-71
2023/08/03 03:21:20;;;;;;;10.32;2.47;;;;;;;;;;4993173;28;94468;-71
2023/08/03 03:23:49;;;;;;;5.97;2.40;;;;;;;;;;4988748;28;95094;-71
2023/08/03 03:26:15;;;;;;;7.10;2.17;;;;;;;;;;4992213;28;95657;-70
2023/08/03 03:28:41;;;;;;;7.78;2.20;;;;;;;;;;4988289;28;94956;-71
2023/08/03 03:31:08;;;;;;;13.30;2.00;;;;;;;;;;4990846;28;94216;-71
2023/08/03 03:33:34;;;;;;;8.95;2.25;;;;;;;;;;4991348;28;93133;-71
2023/08/03 03:36:01;;;;;;;9.65;2.38;;;;;;;;;;4990955;28;93512;-71
2023/08/03 03:38:27;;;;;;;20.85;2.58;;;;;;;;;;4985758;28;92551;-71
2023/08/03 03:40:53;;;;;;;9.07;1.83;;;;;;;;;;4993089;28;92019;-71
2023/08/03 03:43:20;;;;;;;5.22;1.65;;;;;;;;;;4994359;28;93358;-70
2023/08/03 03:45:46;;;;;;;5.78;1.70;;;;;;;;;;4991478;28;94236;-71
2023/08/03 03:48:12;;;;;;;5.20;1.65;;;;;;;;;;4988064;28;96194;-71
2023/08/03 03:50:39;;;;;;;4.40;2.03;;;;;;;;;;4992627;28;92464;-68
2023/08/03 03:53:05;;;;;;;3.28;1.70;;;;;;;;;;4990304;28;93129;-69
2023/08/03 03:55:32;;;;;;;3.85;1.17;;;;;;;;;;4993357;28;94668;-69
2023/08/03 03:57:59;;;;;;;7.70;1.63;;;;;;;;;;4990619;28;92493;-69
2023/08/03 04:00:26;;;;;;;2.83;1.13;;;;;;;;;;4990849;28;93138;-70
2023/08/03 04:02:52;;;;;;;3.85;1.30;;;;;;;;;;4993211;28;93530;-69
2023/08/03 04:05:18;;;;;;;6.32;1.60;;;;;;;;;;4992652;28;92671;-70
2023/08/03 04:07:45;;;;;;;2.95;1.63;;;;;;;;;;4990551;28;92546;-70
2023/08/03 04:10:11;;;;;;;3.95;1.20;;;;;;;;;;4988243;28;92535;-70
2023/08/03 04:12:38;;;;;;;4.63;1.20;;;;;;;;;;4984801;28;95636;-71
2023/08/03 04:15:04;;;;;;;3.83;1.35;;;;;;;;;;4990378;28;94566;-69
2023/08/03 04:17:31;;;;;;;4.05;1.77;;;;;;;;;;4988590;28;92511;-70
2023/08/03 04:19:57;;;;;;;4.85;1.50;;;;;;;;;;4988813;28;94018;-69
2023/08/03 04:22:24;;;;;;;6.35;2.30;;;;;;;;;;4992277;28;93403;-69
2023/08/03 04:24:50;;;;;;;7.10;2.13;;;;;;;;;;4988937;28;93087;-69
2023/08/03 04:27:16;;;;;;;8.30;2.05;;;;;;;;;;4993989;28;93073;-70
2023/08/03 04:29:43;;;;;;;5.80;2.05;;;;;;;;;;4989411;28;91864;-71
2023/08/03 04:32:09;;;;;;;10.65;2.00;;;;;;;;;;4988252;28;92656;-70
2023/08/03 04:34:35;;;;;;;5.35;2.45;;;;;;;;;;4985349;28;93473;-69
2023/08/03 04:37:02;;;;;;;10.27;2.35;;;;;;;;;;4988279;28;95088;-69
2023/08/03 04:39:28;;;;;;;8.48;2.15;;;;;;;;;;4986281;28;95489;-69
2023/08/03 04:41:55;;;;;;;7.57;2.17;;;;;;;;;;4994650;28;93391;-70
2023/08/03 04:44:21;;;;;;;4.70;2.08;;;;;;;;;;4991665;28;92602;-70
2023/08/03 04:46:47;;;;;;;15.25;3.13;;;;;;;;;;4994340;28;93032;-70
2023/08/03 04:49:14;;;;;;;8.85;1.98;;;;;;;;;;4985680;28;92708;-70
2023/08/03 04:51:40;;;;;;;7.63;1.88;;;;;;;;;;4991946;28;93172;-70
2023/08/03 04:54:08;;;;;;;15.13;2.05;;;;;;;;;;4997152;28;97105;-72
2023/08/03 04:56:34;;;;;;;14.77;2.80;;;;;;;;;;4994290;28;92755;-70
2023/08/03 04:59:00;;;;;;;8.23;2.00;;;;;;;;;;4995916;28;93135;-71
2023/08/03 05:01:27;;;;;;;11.95;2.08;;;;;;;;;;4993255;28;95787;-71
2023/08/03 05:03:55;;;;;;;17.10;2.60;;;;;;;;;;4994298;28;92491;-71
2023/08/03 05:06:21;;;;;;;15.13;2.47;;;;;;;;;;4992501;28;93696;-72
2023/08/03 05:08:48;;;;;;;13.98;2.65;;;;;;;;;;4997632;28;93413;-70
2023/08/03 05:11:14;;;;;;;13.15;2.60;;;;;;;;;;4993301;28;92535;-70
2023/08/03 05:13:40;;;;;;;8.85;1.90;;;;;;;;;;4993895;28;93522;-69
2023/08/03 05:16:07;;;;;;;9.40;2.00;;;;;;;;;;4994206;28;92531;-69
2023/08/03 05:18:33;;;;;;;8.50;2.55;;;;;;;;;;4993045;28;93120;-70
2023/08/03 05:20:59;;;;;;;13.88;2.97;;;;;;;;;;4995714;28;93430;-70
2023/08/03 05:23:26;;;;;;;8.57;2.15;;;;;;;;;;4993844;28;92650;-71
2023/08/03 05:25:54;;;;;;;10.77;2.50;;;;;;;;;;4993070;28;94769;-71
2023/08/03 05:28:21;;;;;;;9.50;2.42;;;;;;;;;;4990347;28;93526;-70
2023/08/03 05:30:47;;;;;;;13.05;2.50;;;;;;;;;;4996453;28;92931;-70
2023/08/03 05:33:14;;;;;;;17.02;2.30;;;;;;;;;;4993499;28;94305;-70
2023/08/03 05:35:41;;;;;;;9.93;2.38;;;;;;;;;;4990718;28;92554;-70
2023/08/03 05:38:07;;;;;;;16.30;2.85;;;;;;;;;;4994199;28;93117;-70
2023/08/03 05:40:34;;;;;;;18.98;3.28;;;;;;;;;;4992555;28;93607;-71
2023/08/03 05:43:00;;;;;;;18.90;3.40;;;;;;;;;;4997827;28;92806;-71
2023/08/03 05:45:34;;;;;;;20.73;3.55;;;;;;;;;;4994824;28;92629;-70
2023/08/03 05:48:02;;;;;;;16.67;3.30;;;;;;;;;;4994149;28;93451;-71
2023/08/03 05:50:29;;;;;;;16.70;3.40;;;;;;;;;;4993084;28;94820;-70
2023/08/03 05:52:56;;;;;;;19.80;3.22;;;;;;;;;;5006264;28;95437;-71
2023/08/03 05:55:22;;;;;;;15.20;3.03;;;;;;;;;;4994165;28;92662;-70
2023/08/03 05:57:49;;;;;;;16.55;2.67;;;;;;;;;;4991225;28;93109;-71
2023/08/03 06:00:18;;;;;;;14.27;2.70;;;;;;;;;;4994683;28;94846;-70
2023/08/03 06:02:45;;;;;;;20.23;3.33;;;;;;;;;;4991400;28;92392;-71
2023/08/03 06:05:30;;;;;;;10.23;2.90;;;;;;;;;;4990936;28;93118;-71
2023/08/03 06:07:57;;;;;;;16.40;2.70;;;;;;;;;;4992123;28;94643;-71
2023/08/03 06:10:23;;;;;;;15.65;2.70;;;;;;;;;;4992694;28;92582;-71
2023/08/03 06:12:49;;;;;;;14.98;2.97;;;;;;;;;;4994952;28;93454;-71
2023/08/03 06:15:20;;;;;;;17.50;3.35;;;;;;;;;;4996010;28;95793;-70
2023/08/03 06:17:46;;;;;;;21.35;3.13;;;;;;;;;;4991141;28;95537;-71
2023/08/03 06:20:14;;;;;;;18.00;3.13;;;;;;;;;;4989086;28;93984;-71
2023/08/03 06:22:40;;;;;;;19.42;2.80;;;;;;;;;;4990187;28;92639;-71
2023/08/03 06:25:08;;;;;;;15.63;3.22;;;;;;;;;;4982465;28;96385;-70
2023/08/03 06:27:34;;;;;;;17.33;3.42;;;;;;;;;;4986405;28;94390;-70
2023/08/03 06:30:01;;;;;;;16.65;2.75;;;;;;;;;;4993339;28;92352;-70
2023/08/03 06:32:29;;;;;;;14.23;2.58;;;;;;;;;;4994318;28;92998;-70
2023/08/03 06:34:56;;;;;;;19.25;2.97;;;;;;;;;;4993722;28;96137;-70
2023/08/03 06:37:22;;;;;;;11.73;2.30;;;;;;;;;;4996376;28;92562;-70
2023/08/03 06:39:50;;;;;;;15.30;3.20;;;;;;;;;;5003321;28;97264;-70
2023/08/03 06:42:16;;;;;;;16.25;2.83;;;;;;;;;;4990779;28;93282;-74
2023/08/03 06:44:43;;;;;;;22.52;3.35;;;;;;;;;;4989163;28;92528;-73
2023/08/03 06:47:09;;;;;;;15.77;2.60;;;;;;;;;;4991105;28;93460;-74
2023/08/03 06:49:35;;;;;;;18.98;3.13;;;;;;;;;;4986426;28;93699;-74
2023/08/03 06:52:02;;;;;;;12.73;2.42;;;;;;;;;;4993278;28;93006;-74
2023/08/03 06:54:28;;;;;;;11.77;2.78;;;;;;;;;;4991658;28;93506;-74
2023/08/03 06:56:55;;;;;;;18.20;3.08;;;;;;;;;;4996542;28;92123;-73
2023/08/03 06:59:21;;;;;;;15.02;2.83;;;;;;;;;;4991079;28;94593;-73
2023/08/03 07:01:48;;;;;;;19.00;2.60;;;;;;;;;;4992794;28;92654;-73
2023/08/03 07:04:16;;;;;;;16.30;3.47;;;;;;;;;;4988647;28;94895;-73
2023/08/03 07:06:45;;;;;;;15.00;2.67;;;;;;;;;;4987617;28;94361;-73
2023/08/03 07:09:12;;;;;;;15.48;2.70;;;;;;;;;;4993356;28;92586;-73
2023/08/03 07:11:38;;;;;;;11.32;2.70;;;;;;;;;;4992996;28;93512;-73
2023/08/03 07:14:05;;;;;;;9.48;2.13;;;;;;;;;;4991494;28;93484;-74
2023/08/03 07:16:31;;;;;;;8.52;1.67;;;;;;;;;;4986899;28;93891;-74
2023/08/03 07:18:57;;;;;;;7.57;2.15;;;;;;;;;;4993232;28;93722;-74
2023/08/03 07:21:24;;;;;;;8.15;1.73;;;;;;;;;;4991222;28;91870;-74
2023/08/03 07:23:50;;;;;;;11.88;2.70;;;;;;;;;;4993421;28;92501;-74
2023/08/03 07:26:17;;;;;;;15.00;2.35;;;;;;;;;;4992047;28;93489;-74
2023/08/03 07:28:43;;;;;;;10.13;2.28;;;;;;;;;;4999068;28;98434;-74
2023/08/03 07:31:14;;;;;;;15.65;2.50;;;;;;;;;;4992448;28;95534;-74
2023/08/03 07:33:40;;;;;;;13.15;2.40;;;;;;;;;;4991463;28;94575;-74
2023/08/03 07:36:07;;;;;;;8.43;2.00;;;;;;;;;;4988382;28;92736;-73
2023/08/03 07:38:33;;;;;;;9.85;2.25;;;;;;;;;;4989175;28;93123;-73
2023/08/03 07:40:59;;;;;;;7.72;1.90;;;;;;;;;;4993966;28;93442;-74
2023/08/03 07:43:26;;;;;;;5.63;1.83;;;;;;;;;;4991823;28;93362;-74
2023/08/03 07:45:52;;;;;;;21.70;2.38;;;;;;;;;;4993118;28;92694;-74
2023/08/03 07:48:19;;;;;;;5.45;1.67;;;;;;;;;;4990224;28;93650;-74
2023/08/03 07:50:46;;;;;;;9.77;2.60;;;;;;;;;;4988523;28;93143;-74
2023/08/03 07:53:12;;;;;;;13.57;2.85;;;;;;;;;;4991430;28;95500;-74
2023/08/03 07:55:39;;;;;;;8.65;1.88;;;;;;;;;;4992632;28;92426;-74
2023/08/03 07:58:05;;;;;;;10.60;2.30;;;;;;;;;;4991159;28;93159;-74
2023/08/03 08:00:32;;;;;;;11.80;2.67;;;;;;;;;;4984793;28;93740;-74
2023/08/03 08:02:58;;;;;;;13.13;2.45;;;;;;;;;;4996083;28;92541;-74
2023/08/03 08:05:25;;;;;;;10.88;2.67;;;;;;;;;;4989525;28;93588;-75
2023/08/03 08:07:53;;;;;;;12.65;2.40;;;;;;;;;;4989159;28;92522;-75
2023/08/03 08:10:19;;;;;;;10.60;2.60;;;;;;;;;;4991327;28;93179;-75
2023/08/03 08:12:45;;;;;;;18.38;2.90;;;;;;;;;;4991730;28;93371;-75
2023/08/03 08:15:14;;;;;;;19.20;3.53;;;;;;;;;;4993796;28;92839;-75
2023/08/03 08:17:41;;;;;;;9.63;2.25;;;;;;;;;;4988062;28;95113;-75
2023/08/03 08:20:07;;;;;;;9.57;2.53;;;;;;;;;;4988984;28;93441;-75
2023/08/03 08:22:34;;;;;;;16.33;3.67;;;;;;;;;;4992520;28;92649;-75
2023/08/03 08:25:00;;;;;;;13.55;2.85;;;;;;;;;;4995708;28;92534;-75
2023/08/03 08:27:27;;;;;;;11.50;2.60;;;;;;;;;;4989935;28;93295;-75
2023/08/03 08:29:54;;;;;;;11.18;3.17;;;;;;;;;;4988837;28;93641;-75
2023/08/03 08:32:20;;;;;;;12.70;3.08;;;;;;;;;;4988987;28;94379;-75
2023/08/03 08:34:47;;;;;;;13.50;3.33;;;;;;;;;;4992761;28;92277;-75
2023/08/03 08:37:14;;;;;;;11.13;3.17;;;;;;;;;;4985244;28;95214;-75
2023/08/03 08:39:40;;;;;;;12.68;3.67;;;;;;;;;;4991855;28;93759;-75
2023/08/03 08:42:10;;;;;;;16.27;3.58;;;;;;;;;;4991946;28;95028;-75
2023/08/03 08:44:37;;;;;;;10.48;3.00;;;;;;;;;;4991970;28;95674;-75
2023/08/03 08:47:04;;;;;;;9.27;3.35;;;;;;;;;;4989393;28;92702;-75
2023/08/03 08:49:31;;;;;;;17.33;3.80;;;;;;;;;;4988688;28;93116;-75
2023/08/03 08:52:01;;;;;;;15.85;3.38;;;;;;;;;;4989791;28;93575;-75
2023/08/03 08:54:34;;;;;;;10.55;3.10;;;;;;;;;;4988103;28;92444;-75
2023/08/03 08:57:03;;;;;;;15.52;3.70;;;;;;;;;;4982252;28;93359;-75
2023/08/03 08:59:36;;;;;;;16.25;3.90;;;;;;;;;;4995580;28;94045;-75
2023/08/03 09:02:03;;;;;;;20.38;3.90;;;;;;;;;;4988698;28;92422;-75
2023/08/03 09:04:30;;;;;;;13.85;3.65;;;;;;;;;;4992367;28;92393;-75
2023/08/03 09:06:58;;;;;;;20.00;4.15;;;;;;;;;;4985237;28;96123;-75
2023/08/03 09:09:27;;;;;;;16.55;4.45;;;;;;;;;;4987934;28;95684;-75
2023/08/03 09:11:55;;;;;;;19.33;3.30;;;;;;;;;;4995518;28;93364;-75
2023/08/03 09:14:22;;;;;;;15.27;4.30;;;;;;;;;;4991377;28;92496;-75
2023/08/03 09:16:48;;;;;;;12.68;3.50;;;;;;;;;;4991702;28;93122;-75
2023/08/03 09:19:33;;;;;;;14.88;3.33;;;;;;;;;;4987398;28;93006;-75
2023/08/03 09:22:00;;;;;;;9.55;2.78;;;;;;;;;;4992357;28;92615;-75
2023/08/03 09:24:28;;;;;;;16.30;3.20;;;;;;;;;;4988911;28;93233;-75
2023/08/03 09:26:58;;;;;;;10.95;3.13;;;;;;;;;;4988946;28;93343;-75
2023/08/03 09:29:29;;;;;;;11.98;2.65;;;;;;;;;;4992796;28;92531;-75
2023/08/03 09:32:13;;;;;;;10.57;2.60;;;;;;;;;;4989793;28;95743;-75
2023/08/03 09:34:44;;;;;;;10.77;2.60;;;;;;;;;;4988604;28;93604;-75
2023/08/03 09:37:11;;;;;;;14.05;2.33;;;;;;;;;;4983278;28;93025;-75
2023/08/03 09:39:39;;;;;;;11.05;2.78;;;;;;;;;;4987658;28;94586;-75
2023/08/03 09:42:07;;;;;;;15.30;2.22;;;;;;;;;;4993963;28;92394;-75
2023/08/03 09:44:34;;;;;;;11.88;2.20;;;;;;;;;;4993799;28;93507;-75
2023/08/03 09:47:01;;;;;;;9.45;2.45;;;;;;;;;;4986898;28;93356;-75
2023/08/03 09:49:28;;;;;;;12.82;2.25;;;;;;;;;;4990132;28;92170;-75
2023/08/03 09:51:58;;;;;;;8.98;2.58;;;;;;;;;;4997329;28;92538;-75
2023/08/03 09:54:32;;;;;;;5.70;2.10;;;;;;;;;;4991608;28;92647;-75
2023/08/03 09:57:20;;;;;;;13.25;2.78;;;;;;;;;;4988556;28;94878;-75
2023/08/03 09:59:48;;;;;;;;;;;;;;;;;;4991348;28;93421;-75
2023/08/03 10:02:17;;;;;;;6.53;2.10;;;;;;;;;;4990752;28;118177;-74
2023/08/03 10:04:51;;;;;;;5.75;2.03;;;;;;;;;;4988591;28;96852;-75
2023/08/03 10:07:19;;;;;;;9.13;2.38;;;;;;;;;;4992622;28;93478;-75
2023/08/03 10:09:48;;;;;;;17.02;2.80;;;;;;;;;;4993880;28;92573;-76
2023/08/03 10:12:24;;;;;;;9.67;2.30;;;;;;;;;;4992962;28;93319;-75
2023/08/03 10:14:52;;;;;;;9.55;2.28;;;;;;;;;;4997324;28;93650;-75
2023/08/03 10:17:18;;;;;;;9.27;2.70;;;;;;;;;;4990429;28;92626;-75
2023/08/03 10:19:45;;;;;;;14.35;2.42;;;;;;;;;;4993650;28;94730;-75
2023/08/03 10:22:12;;;;;;;11.73;2.17;;;;;;;;;;4991516;28;94992;-75
2023/08/03 10:24:38;;;;;;;7.55;2.08;;;;;;;;;;4994212;28;95522;-75
2023/08/03 10:27:17;;;;;;;8.57;1.95;;;;;;;;;;4986294;28;94432;-74
2023/08/03 10:29:50;;;;;;;14.48;2.67;;;;;;;;;;4990245;28;92673;-74
2023/08/03 10:32:27;;;;;;;8.75;2.38;;;;;;;;;;4993079;28;93969;-73
2023/08/03 10:34:58;;;;;;;16.85;4.40;;;;;;;;;;4993710;28;93604;-73
2023/08/03 10:37:25;;;;;;;8.95;2.05;;;;;;;;;;4994977;28;92550;-73
2023/08/03 10:39:53;;;;;;;11.68;2.63;;;;;;;;;;4993576;28;95873;-73
2023/08/03 10:42:24;;;;;;;11.10;1.90;;;;;;;;;;4993535;28;92486;-73
2023/08/03 10:44:51;;;;;;;9.95;1.92;;;;;;;;;;4992168;28;93434;-74
2023/08/03 10:47:28;;;;;;;8.98;2.08;;;;;;;;;;4991610;28;95802;-74
2023/08/03 10:49:56;;;;;;;12.55;2.22;;;;;;;;;;4992566;28;92579;-74
2023/08/03 10:52:28;;;;;;;8.90;2.28;;;;;;;;;;4992441;28;93039;-74
2023/08/03 10:54:55;;;;;;;4.45;1.38;;;;;;;;;;4991196;28;92580;-75
2023/08/03 10:57:25;;;;;;;9.60;1.38;;;;;;;;;;4996530;28;92521;-74
2023/08/03 10:59:56;;;;;;;5.40;1.45;;;;;;;;;;4992673;28;93700;-74
2023/08/03 11:02:28;;;;;;;11.07;1.60;;;;;;;;;;4984698;28;92488;-75
2023/08/03 11:04:59;;;;;;;6.65;1.77;;;;;;;;;;4991910;28;93316;-75
2023/08/03 11:07:34;;;;;;;7.53;1.55;;;;;;;;;;4981247;28;94866;-75
2023/08/03 11:10:04;;;;;;;7.20;1.45;;;;;;;;;;4987321;28;92513;-75
2023/08/03 11:12:31;;;;;;;6.07;1.60;;;;;;;;;;4981441;28;96301;-75
2023/08/03 11:14:59;;;;;;;2.42;1.33;;;;;;;;;;4990961;28;94847;-75
2023/08/03 11:17:27;;;;;;;8.52;1.50;;;;;;;;;;4988484;28;93106;-75
2023/08/03 11:19:54;;;;;;;6.38;1.88;;;;;;;;;;4991508;28;93287;-75
2023/08/03 11:22:21;;;;;;;7.82;1.90;;;;;;;;;;4992331;28;92618;-75
2023/08/03 11:24:52;;;;;;;6.90;2.28;;;;;;;;;;4992636;28;94286;-75
2023/08/03 11:27:18;;;;;;;8.68;2.40;;;;;;;;;;5000824;28;93831;-73
2023/08/03 11:29:45;;;;;;;8.18;1.65;;;;;;;;;;4996158;28;92041;-73
2023/08/03 11:32:12;;;;;;;6.07;1.60;;;;;;;;;;5001777;28;92655;-74
2023/08/03 11:34:39;;;;;;;9.40;1.80;;;;;;;;;;4990814;28;95181;-74
2023/08/03 11:37:06;;;;;;;4.32;1.25;;;;;;;;;;4987201;28;95204;-75
2023/08/03 11:39:33;;;;;;;15.60;1.85;;;;;;;;;;4987755;28;95831;-75
2023/08/03 11:42:00;;;;;;;6.88;1.33;;;;;;;;;;4998983;28;93428;-74
2023/08/03 11:44:26;;;;;;;3.55;1.33;;;;;;;;;;4991247;28;92775;-75
2023/08/03 11:47:03;;;;;;;4.72;1.50;;;;;;;;;;4989097;28;93766;-75
2023/08/03 11:49:30;;;;;;;14.88;2.67;;;;;;;;;;4994169;28;94016;-75
2023/08/03 11:51:59;;;;;;;5.65;1.60;;;;;;;;;;4991421;28;93017;-75
2023/08/03 11:54:29;;;;;;;3.25;1.20;;;;;;;;;;4992118;28;93014;-75
2023/08/03 11:59:44;;;;;;;6.63;1.08;;;;;;;;;;4986007;28;92824;-75
2023/08/03 12:02:11;;;;;;;1.98;0.82;;;;;;;;;;4999480;28;98754;-75
2023/08/03 12:04:38;;;;;;;3.03;0.77;;;;;;;;;;4989361;28;94018;-75
2023/08/03 12:07:15;;;;;;;3.92;0.68;;;;;;;;;;4989591;28;95625;-75
2023/08/03 12:09:44;;;;;;;3.75;1.00;;;;;;;;;;4983982;28;94282;-75
2023/08/03 12:12:11;;;;;;;2.08;0.80;;;;;;;;;;4989438;28;93092;-75
2023/08/03 12:14:38;;;;;;;2.88;0.90;;;;;;;;;;4990949;28;92713;-75
2023/08/03 12:17:09;;;;;;;8.35;1.33;;;;;;;;;;4990831;28;92433;-75
2023/08/03 12:19:37;;;;;;;5.47;1.00;;;;;;;;;;4988978;28;93480;-75
2023/08/03 12:22:05;;;;;;;4.20;0.90;;;;;;;;;;4991440;28;94591;-75
2023/08/03 12:24:37;;;;;;;6.10;1.13;;;;;;;;;;4991145;28;92729;-75
2023/08/03 12:27:03;;;;;;;5.72;1.00;;;;;;;;;;4991138;28;94886;-75
2023/08/03 12:29:36;;;;;;;4.35;0.95;;;;;;;;;;4984303;28;92853;-75
2023/08/03 12:32:05;;;;;;;3.23;1.27;;;;;;;;;;4991164;28;93733;-75
2023/08/03 12:34:32;;;;;;;2.58;1.13;;;;;;;;;;4992126;28;93547;-75
2023/08/03 12:36:58;;;;;;;4.18;0.90;;;;;;;;;;4988133;28;94564;-75
2023/08/03 12:39:25;;;;;;;5.03;1.27;;;;;;;;;;4988870;28;93597;-74
2023/08/03 12:41:51;;;;;;;8.15;0.80;;;;;;;;;;4991431;28;94442;-73
2023/08/03 12:44:17;;;;;;;3.47;1.05;;;;;;;;;;4989512;28;91746;-76
2023/08/03 12:46:44;;;;;;;4.97;1.02;;;;;;;;;;4992534;28;93346;-74
2023/08/03 12:49:11;;;;;;;6.22;1.25;;;;;;;;;;4998807;28;93965;-74
2023/08/03 12:51:37;;;;;;;5.80;1.20;;;;;;;;;;4989495;28;95413;-74
2023/08/03 12:54:05;;;;;;;3.88;1.25;;;;;;;;;;4987758;28;93652;-74
2023/08/03 12:56:35;;;;;;;2.88;1.10;;;;;;;;;;4992175;28;92378;-74
2023/08/03 12:59:03;;;;;;;10.98;1.83;;;;;;;;;;4990895;28;92774;-74
2023/08/03 13:01:30;;;;;;;2.33;0.80;;;;;;;;;;4988698;28;93460;-74
2023/08/03 13:03:57;;;;;;;6.60;1.60;;;;;;;;;;4990154;28;92682;-74
2023/08/03 13:06:23;;;;;;;5.70;1.77;;;;;;;;;;4991765;28;93090;-75
2023/08/03 13:08:50;;;;;;;6.72;1.63;;;;;;;;;;4994048;28;92668;-74
2023/08/03 13:11:16;;;;;;;8.98;2.08;;;;;;;;;;4993289;28;93436;-74
2023/08/03 13:13:43;;;;;;;7.97;2.00;;;;;;;;;;4990214;28;93504;-74
2023/08/03 13:16:09;;;;;;;6.90;1.70;;;;;;;;;;4987690;28;94929;-74
2023/08/03 13:18:36;;;;;;;11.48;2.38;;;;;;;;;;4996869;28;95454;-75
2023/08/03 13:21:03;;;;;;;12.05;1.83;;;;;;;;;;4995549;28;93467;-74
2023/08/03 13:23:29;;;;;;;9.73;2.00;;;;;;;;;;4996723;28;92542;-75
2023/08/03 13:25:56;;;;;;;9.48;1.90;;;;;;;;;;4990617;28;93193;-74
2023/08/03 13:28:22;;;;;;;10.20;2.45;;;;;;;;;;4991032;28;93607;-75
2023/08/03 13:30:49;;;;;;;8.02;2.00;;;;;;;;;;4998363;28;94190;-75
2023/08/03 13:33:15;;;;;;;8.45;1.65;;;;;;;;;;4993272;28;93008;-75
2023/08/03 13:35:41;;;;;;;10.65;1.98;;;;;;;;;;4992316;28;92497;-75
2023/08/03 13:38:08;;;;;;;11.85;2.13;;;;;;;;;;4989379;28;95800;-75
2023/08/03 13:40:34;;;;;;;9.88;2.00;;;;;;;;;;4988440;28;95796;-74
2023/08/03 13:43:01;;;;;;;10.88;1.90;;;;;;;;;;4996794;28;92606;-75
2023/08/03 13:45:27;;;;;;;8.23;2.13;;;;;;;;;;4991065;28;93054;-75
2023/08/03 13:47:53;;;;;;;7.57;1.67;;;;;;;;;;4990170;28;94328;-75
2023/08/03 13:50:20;;;;;;;8.90;1.85;;;;;;;;;;4990603;28;92905;-75
2023/08/03 13:52:47;;;;;;;6.45;1.88;;;;;;;;;;4998316;28;93108;-75
2023/08/03 13:55:13;;;;;;;7.13;1.80;;;;;;;;;;4990465;28;92515;-75
2023/08/03 13:57:39;;;;;;;10.35;2.15;;;;;;;;;;4989490;28;93156;-75
2023/08/03 14:00:09;;;;;;;10.30;2.08;;;;;;;;;;4993390;28;93515;-75
2023/08/03 14:02:36;;;;;;;6.28;1.95;;;;;;;;;;4989233;28;92693;-75
2023/08/03 14:05:05;;;;;;;20.03;2.90;;;;;;;;;;4987427;28;96935;-75
2023/08/03 14:07:34;;;;;;;5.50;1.65;;;;;;;;;;4989815;28;95000;-75
2023/08/03 14:10:06;;;;;;;6.43;1.80;;;;;;;;;;4987391;28;92519;-75
2023/08/03 14:12:36;;;;;;;7.55;2.08;;;;;;;;;;4990933;28;92849;-75
2023/08/03 14:15:05;;;;;;;6.57;1.50;;;;;;;;;;4996983;28;93300;-74
2023/08/03 14:17:35;;;;;;;4.00;1.23;;;;;;;;;;4991753;28;93027;-74
2023/08/03 14:20:05;;;;;;;6.40;1.60;;;;;;;;;;4989852;28;92469;-75
2023/08/03 14:22:34;;;;;;;3.63;1.40;;;;;;;;;;4994478;28;91876;-74
2023/08/03 14:25:00;;;;;;;5.00;1.50;;;;;;;;;;4990246;28;92548;-75
2023/08/03 14:27:30;;;;;;;5.25;1.45;;;;;;;;;;4983158;28;93362;-75
2023/08/03 14:29:56;;;;;;;9.40;2.05;;;;;;;;;;4990404;28;94867;-75
2023/08/03 14:32:22;;;;;;;7.05;1.65;;;;;;;;;;4989558;28;95431;-75
2023/08/03 14:34:49;;;;;;;6.93;1.73;;;;;;;;;;4994245;28;93067;-75
2023/08/03 14:37:19;;;;;;;8.18;2.13;;;;;;;;;;4993662;28;92566;-75
2023/08/03 14:39:45;;;;;;;10.45;2.03;;;;;;;;;;4992759;28;93418;-75